createdAt,value
2018-07-04T00:01:48.048Z,101401.72
2018-07-04T00:04:30.523Z,101398.63
2018-07-04T00:07:10.707Z,101400.41
2018-07-04T00:09:50.929Z,101394.20
2018-07-04T00:12:31.278Z,101397.79
2018-07-04T00:15:11.613Z,101392.47
2018-07-04T00:17:52.195Z,101395.16
2018-07-04T00:20:37.700Z,101400.94
2018-07-04T00:23:18.245Z,101395.20
2018-07-04T00:25:58.422Z,101399.24
2018-07-04T00:28:38.635Z,101396.61
2018-07-04T00:31:18.714Z,101395.30
2018-07-04T00:33:58.867Z,101401.56
2018-07-04T00:36:47.319Z,101394.47
2018-07-04T00:39:27.746Z,101396.73
2018-07-04T00:42:08.107Z,101396.33
2018-07-04T00:44:48.105Z,101391.92
2018-07-04T00:47:30.530Z,101379.93
2018-07-04T00:50:10.645Z,101381.30
2018-07-04T00:52:50.800Z,101381.33
2018-07-04T00:55:31.104Z,101376.48
2018-07-04T00:58:11.449Z,101379.17
2018-07-04T01:00:51.561Z,101369.37
2018-07-04T01:03:31.840Z,101366.31
2018-07-04T01:06:12.402Z,101364.14
2018-07-04T01:08:52.805Z,101360.64
2018-07-04T01:11:33.276Z,101358.45
2018-07-04T01:14:13.388Z,101346.48
2018-07-04T01:16:53.395Z,101347.84
2018-07-04T01:19:33.583Z,101343.42
2018-07-04T01:22:13.743Z,101338.55
2018-07-04T01:24:53.703Z,101347.48
2018-07-04T01:27:34.222Z,101341.69
2018-07-04T01:30:14.716Z,101340.79
2018-07-04T01:32:55.173Z,101343.47
2018-07-04T01:35:35.182Z,101335.50
2018-07-04T01:38:15.342Z,101336.41
2018-07-04T01:40:55.444Z,101336.87
2018-07-04T01:43:35.616Z,101339.10
2018-07-04T01:46:16.075Z,101332.45
2018-07-04T01:48:56.210Z,101331.14
2018-07-04T01:51:36.580Z,101329.84
2018-07-04T01:54:17.077Z,101328.52
2018-07-04T01:56:57.298Z,101333.44
2018-07-04T01:59:37.089Z,101331.23
2018-07-04T02:02:16.836Z,101331.69
2018-07-04T02:04:56.699Z,101328.59
2018-07-04T02:07:36.310Z,101334.38
2018-07-04T02:10:16.344Z,101327.73
2018-07-04T02:12:56.029Z,101332.19
2018-07-04T02:15:35.932Z,101331.27
2018-07-04T02:18:15.884Z,101323.28
2018-07-04T02:20:55.669Z,101325.07
2018-07-04T02:23:35.432Z,101320.19
2018-07-04T02:26:15.142Z,101320.19
2018-07-04T02:28:54.897Z,101326.38
2018-07-04T02:31:34.746Z,101329.48
2018-07-04T02:34:14.485Z,101321.49
2018-07-04T02:36:54.219Z,101325.03
2018-07-04T02:39:34.098Z,101323.70
2018-07-04T02:42:13.948Z,101327.25
2018-07-04T02:44:53.755Z,101323.70
2018-07-04T02:47:33.640Z,101323.69
2018-07-04T02:50:13.388Z,101330.34
2018-07-04T02:52:53.207Z,101326.79
2018-07-04T02:55:32.997Z,101329.00
2018-07-04T02:58:12.776Z,101321.91
2018-07-04T03:00:52.530Z,101322.78
2018-07-04T03:03:32.243Z,101321.02
2018-07-04T03:06:12.070Z,101317.02
2018-07-04T03:08:51.840Z,101321.40
2018-07-04T03:11:31.612Z,101322.73
2018-07-04T03:14:11.331Z,101321.83
2018-07-04T03:16:51.069Z,101323.16
2018-07-04T03:19:30.918Z,101318.27
2018-07-04T03:22:10.767Z,101316.94
2018-07-04T03:24:50.380Z,101327.13
2018-07-04T03:27:30.190Z,101318.25
2018-07-04T03:30:10.077Z,101318.69
2018-07-04T03:32:49.799Z,101316.45
2018-07-04T03:35:29.672Z,101315.11
2018-07-04T03:38:22.566Z,101320.41
2018-07-04T03:41:02.244Z,101323.50
2018-07-04T03:43:42.144Z,101320.83
2018-07-04T03:46:22.098Z,101325.70
2018-07-04T03:49:22.813Z,101328.36
2018-07-04T03:52:02.536Z,101320.37
2018-07-04T03:54:42.430Z,101319.48
2018-07-04T03:57:22.333Z,101322.61
2018-07-04T04:00:02.021Z,101314.20
2018-07-04T04:02:41.808Z,101317.75
2018-07-04T04:05:21.801Z,101322.19
2018-07-04T04:08:01.667Z,101325.30
2018-07-04T04:10:41.456Z,101324.42
2018-07-04T04:13:21.117Z,101319.09
2018-07-04T04:16:00.901Z,101314.67
2018-07-04T04:18:40.724Z,101314.24
2018-07-04T04:21:20.492Z,101320.02
2018-07-04T04:24:00.029Z,101316.91
2018-07-04T04:26:39.847Z,101315.59
2018-07-04T04:29:19.628Z,101323.14
2018-07-04T04:31:59.458Z,101324.03
2018-07-04T04:34:39.233Z,101335.12
2018-07-04T04:37:18.972Z,101339.13
2018-07-04T04:39:58.821Z,101337.79
2018-07-04T04:42:38.645Z,101338.23
2018-07-04T04:45:18.440Z,101332.47
2018-07-04T04:47:58.258Z,101324.48
2018-07-04T04:50:38.033Z,101330.26
2018-07-04T04:53:18.015Z,101326.27
2018-07-04T04:55:57.748Z,101325.88
2018-07-04T04:58:37.591Z,101328.98
2018-07-04T05:01:17.296Z,101326.78
2018-07-04T05:03:57.069Z,101327.22
2018-07-04T05:06:36.855Z,101321.91
2018-07-04T05:09:16.600Z,101325.47
2018-07-04T05:11:56.131Z,101319.69
2018-07-04T05:14:35.933Z,101323.69
2018-07-04T05:17:16.631Z,101317.48
2018-07-04T05:19:56.274Z,101321.48
2018-07-04T05:22:36.082Z,101320.14
2018-07-04T05:25:16.109Z,101311.71
2018-07-04T05:27:55.978Z,101308.60
2018-07-04T05:30:35.576Z,101305.95
2018-07-04T05:33:15.474Z,101314.39
2018-07-04T05:35:55.326Z,101312.17
2018-07-04T05:38:35.170Z,101306.88
2018-07-04T05:41:14.951Z,101304.64
2018-07-04T05:43:54.787Z,101305.51
2018-07-04T05:46:34.522Z,101298.41
2018-07-04T05:49:23.552Z,101298.38
2018-07-04T05:52:05.473Z,101297.91
2018-07-04T05:54:45.180Z,101295.67
2018-07-04T05:57:25.006Z,101297.39
2018-07-04T06:00:04.656Z,101300.02
2018-07-04T06:02:44.420Z,101301.34
2018-07-04T06:05:24.363Z,101291.06
2018-07-04T06:08:03.936Z,101299.91
2018-07-04T06:10:43.737Z,101298.57
2018-07-04T06:13:23.561Z,101306.17
2018-07-04T06:16:03.202Z,101311.93
2018-07-04T06:18:43.029Z,101310.58
2018-07-04T06:21:22.724Z,101310.08
2018-07-04T06:24:02.541Z,101306.96
2018-07-04T06:26:42.301Z,101309.55
2018-07-04T06:29:22.089Z,101307.25
2018-07-04T06:32:01.954Z,101306.29
2018-07-04T06:34:41.798Z,101307.99
2018-07-04T06:37:21.617Z,101307.06
2018-07-04T06:39:48.887Z,101303.00
2018-07-04T06:42:16.147Z,101306.50
2018-07-04T06:44:43.406Z,101303.75
2018-07-04T06:47:10.661Z,101308.13
2018-07-04T06:49:37.901Z,101302.67
2018-07-04T06:52:05.195Z,101303.92
2018-07-04T06:54:32.907Z,101307.48
2018-07-04T06:57:00.189Z,101306.03
2018-07-04T06:59:27.431Z,101310.00
2018-07-04T07:02:17.875Z,101307.22
2018-07-04T07:04:58.466Z,101307.45
2018-07-04T07:07:38.124Z,101306.03
2018-07-04T07:10:18.105Z,101309.53
2018-07-04T07:12:57.842Z,101306.39
2018-07-04T07:15:51.584Z,101298.67
2018-07-04T07:18:31.363Z,101303.81
2018-07-04T07:21:11.202Z,101301.42
2018-07-04T07:23:51.005Z,101298.63
2018-07-04T07:26:30.732Z,101294.11
2018-07-04T07:35:53.808Z,101297.20
2018-07-04T07:38:33.664Z,101294.86
2018-07-04T07:41:13.439Z,101293.33
2018-07-04T07:43:53.611Z,101296.59
2018-07-04T07:46:33.289Z,101288.76
2018-07-04T07:49:13.121Z,101288.67
2018-07-04T07:51:53.002Z,101289.98
2018-07-04T07:54:32.875Z,101295.17
2018-07-04T07:57:12.544Z,101290.27
2018-07-04T07:59:52.238Z,101292.92
2018-07-04T08:02:31.963Z,101296.17
2018-07-04T08:05:11.693Z,101290.69
2018-07-04T08:07:53.418Z,101295.45
2018-07-04T08:10:33.194Z,101293.20
2018-07-04T08:13:13.009Z,101299.88
2018-07-04T08:15:52.795Z,101293.59
2018-07-04T08:18:32.605Z,101294.36
2018-07-04T08:21:12.443Z,101293.22
2018-07-04T08:23:52.573Z,101295.20
2018-07-04T08:26:32.343Z,101291.59
2018-07-04T08:29:12.099Z,101286.65
2018-07-04T08:31:51.969Z,101284.62
2018-07-04T08:34:31.745Z,101293.72
2018-07-04T08:37:11.520Z,101287.21
2018-07-04T08:39:51.389Z,101280.64
2018-07-04T08:42:31.242Z,101280.95
2018-07-04T08:45:11.075Z,101286.05
2018-07-04T08:47:50.926Z,101279.11
2018-07-04T08:53:39.149Z,101288.19
2018-07-04T08:56:18.704Z,101282.20
2018-07-04T08:58:58.452Z,101276.17
2018-07-04T09:01:38.377Z,101274.05
2018-07-04T09:04:19.918Z,101276.55
2018-07-04T09:06:59.782Z,101279.33
2018-07-04T09:09:39.603Z,101286.27
2018-07-04T09:12:19.479Z,101290.47
2018-07-04T09:14:59.320Z,101284.92
2018-07-04T09:17:39.150Z,101292.95
2018-07-04T09:20:18.899Z,101295.10
2018-07-04T09:22:58.672Z,101291.30
2018-07-04T09:25:38.274Z,101293.78
2018-07-04T09:28:18.085Z,101300.86
2018-07-04T09:30:57.755Z,101290.79
2018-07-04T09:33:37.634Z,101294.37
2018-07-04T09:36:17.279Z,101291.77
2018-07-04T09:38:57.139Z,101291.20
2018-07-04T09:41:36.975Z,101291.68
2018-07-04T09:44:16.694Z,101288.80
2018-07-04T09:46:56.393Z,101289.89
2018-07-04T09:49:36.145Z,101281.65
2018-07-04T09:52:15.950Z,101291.52
2018-07-04T09:54:55.895Z,101296.14
2018-07-04T09:57:35.668Z,101293.84
2018-07-04T10:00:15.318Z,101294.48
2018-07-04T10:02:55.039Z,101298.48
2018-07-04T10:05:34.943Z,101295.02
2018-07-04T10:08:14.748Z,101290.31
2018-07-04T10:10:54.483Z,101291.34
2018-07-04T10:13:34.349Z,101289.63
2018-07-04T10:16:14.148Z,101290.16
2018-07-04T10:18:54.146Z,101295.63
2018-07-04T10:21:33.929Z,101289.98
2018-07-04T10:24:13.630Z,101290.39
2018-07-04T10:26:53.692Z,101287.34
2018-07-04T10:29:33.447Z,101282.64
2018-07-04T10:32:13.278Z,101278.25
2018-07-04T10:34:53.016Z,101273.64
2018-07-04T10:37:32.839Z,101276.86
2018-07-04T10:40:12.723Z,101265.31
2018-07-04T10:42:52.713Z,101267.05
2018-07-04T10:45:32.662Z,101267.95
2018-07-04T10:48:12.343Z,101266.57
2018-07-04T10:50:52.126Z,101261.01
2018-07-04T10:53:32.084Z,101265.57
2018-07-04T10:56:11.732Z,101260.22
2018-07-04T10:58:51.803Z,101253.36
2018-07-04T11:01:31.363Z,101256.52
2018-07-04T11:04:11.192Z,101251.33
2018-07-04T11:06:50.857Z,101241.45
2018-07-04T11:09:31.839Z,101240.50
2018-07-04T11:12:12.875Z,101236.72
2018-07-04T11:14:53.854Z,101234.34
2018-07-04T11:17:47.343Z,101228.80
2018-07-04T11:20:29.883Z,101223.48
2018-07-04T11:23:11.334Z,101221.17
2018-07-04T11:25:51.979Z,101215.21
2018-07-04T11:28:33.468Z,101215.83
2018-07-04T11:31:14.680Z,101210.60
2018-07-04T11:33:56.295Z,101210.69
2018-07-04T11:36:37.630Z,101199.08
2018-07-04T11:39:18.986Z,101207.61
2018-07-04T11:42:00.206Z,101195.95
2018-07-04T11:44:52.659Z,101199.23
2018-07-04T11:47:21.843Z,101199.53
2018-07-04T11:49:51.367Z,101200.31
2018-07-04T11:52:20.666Z,101199.84
2018-07-04T11:54:49.978Z,101199.92
2018-07-04T11:57:19.206Z,101195.52
2018-07-04T11:59:48.596Z,101197.89
2018-07-04T12:02:17.950Z,101200.81
2018-07-04T12:05:03.650Z,101199.73
2018-07-04T12:07:32.550Z,101196.11
2018-07-04T12:10:01.614Z,101206.66
2018-07-04T12:12:30.394Z,101207.34
2018-07-04T12:14:59.075Z,101205.69
2018-07-04T12:17:27.705Z,101202.29
2018-07-04T12:19:56.721Z,101206.22
2018-07-04T12:22:25.887Z,101207.59
2018-07-04T12:24:55.053Z,101203.83
2018-07-04T12:27:24.145Z,101204.89
2018-07-04T12:29:52.174Z,101201.16
2018-07-04T12:32:43.899Z,101198.99
2018-07-04T12:35:11.283Z,101195.73
2018-07-04T12:37:39.125Z,101198.87
2018-07-04T12:40:07.292Z,101201.76
2018-07-04T12:42:35.845Z,101201.16
2018-07-04T12:45:05.220Z,101204.00
2018-07-04T12:47:34.301Z,101202.56
2018-07-04T12:50:03.011Z,101209.83
2018-07-04T12:52:31.297Z,101205.51
2018-07-04T12:55:14.285Z,101208.27
2018-07-04T12:57:55.456Z,101206.75
2018-07-04T13:00:36.710Z,101202.73
2018-07-04T13:03:18.748Z,101205.03
2018-07-04T13:05:59.538Z,101189.31
2018-07-04T13:08:40.273Z,101190.23
2018-07-04T13:11:21.220Z,101195.38
2018-07-04T13:14:02.200Z,101191.11
2018-07-04T13:16:42.960Z,101185.28
2018-07-04T13:19:24.268Z,101193.80
2018-07-04T13:22:05.636Z,101192.13
2018-07-04T13:24:46.753Z,101198.64
2018-07-04T13:27:28.305Z,101206.84
2018-07-04T13:30:07.954Z,101202.87
2018-07-04T13:32:48.190Z,101207.61
2018-07-04T13:35:28.028Z,101211.20
2018-07-04T13:38:07.721Z,101206.16
2018-07-04T13:40:47.500Z,101207.27
2018-07-04T13:43:27.142Z,101206.04
2018-07-04T13:46:06.999Z,101208.84
2018-07-04T13:48:46.854Z,101210.02
2018-07-04T13:51:26.567Z,101208.28
2018-07-04T13:54:06.389Z,101205.02
2018-07-04T13:56:47.590Z,101197.06
2018-07-04T13:59:27.450Z,101191.08
2018-07-04T14:02:07.129Z,101190.33
2018-07-04T14:04:46.800Z,101190.36
2018-07-04T14:07:26.600Z,101196.67
2018-07-04T14:10:07.744Z,101197.72
2018-07-04T14:12:48.581Z,101202.66
2018-07-04T14:15:28.465Z,101197.23
2018-07-04T14:18:08.266Z,101194.20
2018-07-04T14:20:48.057Z,101190.84
2018-07-04T14:23:27.864Z,101181.89
2018-07-04T14:26:07.940Z,101178.35
2018-07-04T14:28:47.841Z,101183.56
2018-07-04T14:31:27.633Z,101173.52
2018-07-04T14:34:07.487Z,101181.35
2018-07-04T14:36:47.374Z,101183.04
2018-07-04T14:39:26.945Z,101187.44
2018-07-04T14:42:06.767Z,101182.73
2018-07-04T14:44:46.458Z,101180.09
2018-07-04T14:47:26.354Z,101179.21
2018-07-04T14:50:05.964Z,101177.85
2018-07-04T14:52:45.824Z,101172.64
2018-07-04T14:55:25.611Z,101169.25
2018-07-04T14:58:05.413Z,101160.87
2018-07-04T15:00:45.302Z,101165.09
2018-07-04T15:03:24.891Z,101162.38
2018-07-04T15:06:04.716Z,101154.80
2018-07-04T15:08:44.478Z,101154.63
2018-07-04T15:11:25.597Z,101151.16
2018-07-04T15:14:05.436Z,101144.14
2018-07-04T15:16:45.105Z,101140.45
2018-07-04T15:19:24.871Z,101140.88
2018-07-04T15:22:04.754Z,101136.41
2018-07-04T15:24:44.621Z,101130.97
2018-07-04T15:27:25.087Z,101132.98
2018-07-04T15:30:05.402Z,101128.25
2018-07-04T15:32:45.479Z,101128.97
2018-07-04T15:35:25.294Z,101123.71
2018-07-04T15:38:05.380Z,101122.81
2018-07-04T15:40:45.102Z,101131.61
2018-07-04T15:43:24.873Z,101124.76
2018-07-04T15:46:04.716Z,101131.78
2018-07-04T15:48:44.442Z,101121.02
2018-07-04T15:51:24.969Z,101121.90
2018-07-04T15:54:05.165Z,101124.97
2018-07-04T15:56:45.031Z,101114.77
2018-07-04T15:59:24.839Z,101112.31
2018-07-04T16:02:04.789Z,101112.05
2018-07-04T16:04:47.308Z,101118.48
2018-07-04T16:07:26.992Z,101122.53
2018-07-04T16:10:16.021Z,101117.56
2018-07-04T16:12:55.981Z,101115.73
2018-07-04T16:15:41.776Z,101113.67
2018-07-04T16:18:21.780Z,101113.02
2018-07-04T16:21:03.206Z,101112.17
2018-07-04T16:23:42.931Z,101106.56
2018-07-04T16:26:23.935Z,101109.41
2018-07-04T16:29:06.045Z,101103.09
2018-07-04T16:31:45.864Z,101115.14
2018-07-04T16:34:25.734Z,101109.39
2018-07-04T16:37:05.329Z,101107.31
2018-07-04T16:39:45.196Z,101106.85
2018-07-04T16:42:25.048Z,101107.09
2018-07-04T16:45:05.215Z,101109.50
2018-07-04T16:47:45.634Z,101109.51
2018-07-04T16:50:25.779Z,101109.41
2018-07-04T16:53:07.091Z,101109.16
2018-07-04T16:55:46.837Z,101108.17
2018-07-04T16:58:28.753Z,101106.11
2018-07-04T17:01:08.808Z,101100.59
2018-07-04T17:03:48.552Z,101106.33
2018-07-04T17:06:28.285Z,101106.01
2018-07-04T17:09:08.130Z,101092.73
2018-07-04T17:11:47.880Z,101089.38
2018-07-04T17:14:27.675Z,101093.58
2018-07-04T17:17:07.476Z,101094.66
2018-07-04T17:19:47.289Z,101092.01
2018-07-04T17:22:27.157Z,101088.02
2018-07-04T17:25:06.944Z,101079.83
2018-07-04T17:27:46.682Z,101077.95
2018-07-04T17:30:26.629Z,101073.47
2018-07-04T17:33:06.332Z,101071.88
2018-07-04T17:35:46.108Z,101061.34
2018-07-04T17:38:26.907Z,101065.25
2018-07-04T17:41:06.763Z,101067.16
2018-07-04T17:43:46.556Z,101064.69
2018-07-04T17:46:26.374Z,101072.19
2018-07-04T17:49:06.327Z,101065.80
2018-07-04T17:51:46.296Z,101076.09
2018-07-04T17:54:26.150Z,101069.48
2018-07-04T17:57:06.054Z,101072.03
2018-07-04T18:00:02.622Z,101060.86
2018-07-04T18:02:42.370Z,101053.31
2018-07-04T18:05:22.236Z,101054.31
2018-07-04T18:08:02.128Z,101063.98
2018-07-04T18:10:41.865Z,101065.79
2018-07-04T18:13:21.639Z,101065.31
2018-07-04T18:16:01.432Z,101062.12
2018-07-04T18:18:41.230Z,101070.53
2018-07-04T18:21:24.574Z,101075.52
2018-07-04T18:24:05.326Z,101078.79
2018-07-04T18:26:45.226Z,101077.78
2018-07-04T18:29:25.020Z,101089.49
2018-07-04T18:32:05.302Z,101089.97
2018-07-04T18:34:45.182Z,101090.63
2018-07-04T18:37:25.191Z,101096.59
2018-07-04T18:40:04.847Z,101107.66
2018-07-04T18:42:44.731Z,101106.97
2018-07-04T18:45:24.552Z,101104.95
2018-07-04T18:48:04.384Z,101106.12
2018-07-04T18:50:44.266Z,101109.30
2018-07-04T18:53:24.136Z,101110.95
2018-07-04T18:56:03.968Z,101107.78
2018-07-04T18:58:43.701Z,101104.97
2018-07-04T19:01:23.670Z,101108.31
2018-07-04T19:04:03.297Z,101107.25
2018-07-04T19:06:43.034Z,101107.16
2018-07-04T19:09:22.834Z,101109.84
2018-07-04T19:12:02.737Z,101113.45
2018-07-04T19:14:42.502Z,101113.50
2018-07-04T19:17:22.227Z,101116.83
2018-07-04T19:20:02.130Z,101119.63
2018-07-04T19:22:41.788Z,101111.34
2018-07-04T19:25:21.461Z,101117.47
2018-07-04T19:28:11.714Z,101117.91
2018-07-04T19:30:51.493Z,101121.73
2018-07-04T19:33:31.364Z,101125.97
2018-07-04T19:36:11.070Z,101125.63
2018-07-04T19:38:50.929Z,101119.28
2018-07-04T19:41:30.659Z,101123.66
2018-07-04T19:44:10.415Z,101117.77
2018-07-04T19:47:02.218Z,101121.75
2018-07-04T19:49:46.627Z,101118.63
2018-07-04T19:52:26.525Z,101121.50
2018-07-04T19:55:06.205Z,101125.95
2018-07-04T19:57:46.016Z,101126.28
2018-07-04T20:00:25.813Z,101120.94
2018-07-04T20:03:05.620Z,101119.69
2018-07-04T20:05:45.518Z,101120.70
2018-07-04T20:08:25.296Z,101122.56
2018-07-04T20:11:04.901Z,101128.98
2018-07-04T20:13:44.652Z,101128.73
2018-07-04T20:16:24.494Z,101125.84
2018-07-04T20:19:04.216Z,101119.70
2018-07-04T20:21:43.983Z,101124.41
2018-07-04T20:24:23.681Z,101124.61
2018-07-04T20:27:03.585Z,101124.77
2018-07-04T20:29:43.424Z,101115.94
2018-07-04T20:32:23.284Z,101121.97
2018-07-04T20:35:03.133Z,101125.24
2018-07-04T20:37:42.987Z,101127.63
2018-07-04T20:40:22.810Z,101127.92
2018-07-04T20:43:02.633Z,101128.11
2018-07-04T20:45:42.417Z,101128.72
2018-07-04T20:48:22.240Z,101126.67
2018-07-04T20:51:02.060Z,101126.57
2018-07-04T20:53:42.029Z,101138.75
2018-07-04T20:56:21.896Z,101142.35
2018-07-04T20:59:01.703Z,101142.98
2018-07-04T21:01:41.391Z,101156.30
2018-07-04T21:04:21.153Z,101160.52
2018-07-04T21:07:01.102Z,101155.31
2018-07-04T21:09:40.741Z,101158.55
2018-07-04T21:12:20.460Z,101167.53
2018-07-04T21:15:00.150Z,101172.67
2018-07-04T21:17:39.898Z,101177.78
2018-07-04T21:20:19.730Z,101181.94
2018-07-04T21:22:59.678Z,101185.10
2018-07-04T21:25:39.285Z,101179.34
2018-07-04T21:28:19.274Z,101190.89
2018-07-04T21:30:58.884Z,101195.36
2018-07-04T21:33:38.645Z,101196.36
2018-07-04T21:36:18.571Z,101204.86
2018-07-04T21:38:58.178Z,101213.89
2018-07-04T21:41:37.986Z,101216.70
2018-07-04T21:44:17.765Z,101215.89
2018-07-04T21:46:57.577Z,101211.39
2018-07-04T21:49:37.471Z,101209.19
2018-07-04T21:52:17.175Z,101203.02
2018-07-04T21:54:57.045Z,101195.49
2018-07-04T21:57:36.768Z,101191.09
2018-07-04T22:00:25.814Z,101190.72
2018-07-04T22:03:05.651Z,101196.20
2018-07-04T22:06:19.287Z,101195.09
2018-07-04T22:08:59.029Z,101202.50
2018-07-04T22:11:38.808Z,101197.69
2018-07-04T22:14:18.661Z,101204.22
2018-07-04T22:16:58.411Z,101209.69
2018-07-04T22:19:38.318Z,101204.89
2018-07-04T22:22:17.898Z,101215.16
2018-07-04T22:24:57.860Z,101220.48
2018-07-04T22:27:37.657Z,101214.70
2018-07-04T22:30:17.346Z,101204.95
2018-07-04T22:32:57.186Z,101214.38
2018-07-04T22:35:36.873Z,101217.61
2018-07-04T22:38:16.600Z,101224.36
2018-07-04T22:40:56.287Z,101219.92
2018-07-04T22:43:36.037Z,101223.92
2018-07-04T22:46:15.792Z,101222.19
2018-07-04T22:48:55.601Z,101228.95
2018-07-04T22:51:35.257Z,101231.28
2018-07-04T22:54:15.024Z,101227.70
2018-07-04T22:56:55.010Z,101224.12
2018-07-04T22:59:34.629Z,101214.77
2018-07-04T23:02:14.348Z,101207.62
2018-07-04T23:04:54.054Z,101204.05
2018-07-04T23:07:33.751Z,101196.46
2018-07-04T23:10:13.500Z,101196.89
2018-07-04T23:12:53.240Z,101193.73
2018-07-04T23:15:33.039Z,101192.39
2018-07-04T23:18:12.825Z,101179.87
2018-07-04T23:20:52.664Z,101177.62
2018-07-04T23:23:32.441Z,101184.73
2018-07-04T23:26:12.169Z,101190.08
2018-07-04T23:28:51.880Z,101190.52
2018-07-04T23:31:31.754Z,101194.10
2018-07-04T23:34:37.113Z,101196.46
2018-07-04T23:37:16.794Z,101192.95
2018-07-04T23:39:56.564Z,101196.13
2018-07-04T23:42:36.431Z,101190.33
2018-07-04T23:45:16.112Z,101193.98
2018-07-04T23:47:55.852Z,101194.91
2018-07-04T23:50:35.523Z,101193.10
2018-07-04T23:53:15.241Z,101193.52
2018-07-04T23:55:55.138Z,101187.73
